Time;durP1;ratioP1;P1;durP2;ratioP2;P2;SDS_P1;SDS_P2;PMS_P1;PMS_P2;Temp;Humidity;BMP_temperature;BMP_pressure;BME280_temperature;BME280_humidity;BME280_pressure;Samples;Min_cycle;Max_cycle;Signal;HPM_P1;HPM_P2
2020/12/04 00:03:48;;;;;;;23.10;13.98;;;-2.10;70.10;;;;;;6122182;23;20574;-69
2020/12/04 00:06:26;;;;;;;25.67;16.60;;;-2.20;70.00;;;;;;6121964;23;20199;-69
2020/12/04 00:08:53;;;;;;;25.02;13.57;;;-2.20;70.10;;;;;;6122206;23;20211;-70
2020/12/04 00:11:22;;;;;;;24.95;14.80;;;-2.20;70.30;;;;;;6119546;23;20195;-69
2020/12/04 00:21:08;;;;;;;24.98;13.38;;;-2.20;69.70;;;;;;6151613;23;20201;-69
2020/12/04 00:23:35;;;;;;;24.13;13.63;;;-2.10;70.80;;;;;;6150659;23;20239;-70
2020/12/04 00:26:40;;;;;;;23.42;13.90;;;-2.10;70.60;;;;;;6151525;23;20159;-69
2020/12/04 00:29:07;;;;;;;26.08;15.65;;;-2.10;71.00;;;;;;6150972;23;20176;-69
2020/12/04 00:31:35;;;;;;;24.88;16.17;;;-2.10;71.10;;;;;;6151260;23;20159;-70
2020/12/04 00:34:02;;;;;;;27.13;16.77;;;-2.10;71.10;;;;;;6150908;23;20163;-69
2020/12/04 00:36:30;;;;;;;23.80;14.18;;;-2.10;71.40;;;;;;6151355;23;20230;-70
2020/12/04 00:38:59;;;;;;;23.60;15.60;;;-2.00;71.70;;;;;;6150841;23;20242;-70
2020/12/04 00:41:29;;;;;;;26.83;16.75;;;-1.90;71.90;;;;;;6151339;23;20250;-70
2020/12/04 00:43:56;;;;;;;21.05;14.32;;;-1.90;71.70;;;;;;6150582;23;20631;-70
2020/12/04 00:46:24;;;;;;;22.40;14.35;;;-1.90;72.10;;;;;;6151364;23;20160;-69
2020/12/04 00:48:55;;;;;;;24.02;15.70;;;-1.90;72.00;;;;;;6151169;23;20191;-70
2020/12/04 00:52:03;;;;;;;24.20;15.88;;;-1.80;72.20;;;;;;6151268;23;20148;-70
2020/12/04 00:54:30;;;;;;;33.80;15.75;;;-1.70;72.10;;;;;;6151540;23;20254;-69
2020/12/04 00:57:02;;;;;;;25.83;16.75;;;-1.70;72.10;;;;;;6151789;23;20152;-69
2020/12/04 01:02:53;;;;;;;28.20;16.48;;;-1.70;72.00;;;;;;6150705;23;20163;-69
2020/12/04 01:08:43;;;;;;;26.58;15.02;;;-1.70;72.10;;;;;;6151121;23;20229;-69
2020/12/04 01:11:10;;;;;;;28.85;14.88;;;-1.70;71.60;;;;;;6150938;23;20224;-69
2020/12/04 01:13:37;;;;;;;23.23;13.98;;;-1.80;71.70;;;;;;6150309;23;20196;-69
2020/12/04 01:16:50;;;;;;;22.45;14.00;;;-1.80;71.50;;;;;;6151094;23;20156;-69
2020/12/04 01:19:16;;;;;;;25.33;13.90;;;-1.80;71.90;;;;;;6148241;23;20191;-69
2020/12/04 01:21:55;;;;;;;22.75;15.57;;;-1.80;72.00;;;;;;6151343;23;20156;-69
2020/12/04 01:27:45;;;;;;;22.73;14.10;;;-1.80;71.20;;;;;;6151576;23;20179;-69
2020/12/04 01:30:14;;;;;;;19.35;12.77;;;-1.80;70.70;;;;;;6152295;23;20164;-69
2020/12/04 01:32:40;;;;;;;21.92;13.48;;;-1.80;70.80;;;;;;6151654;23;20198;-69
2020/12/04 01:38:30;;;;;;;21.02;14.50;;;-1.80;71.20;;;;;;6152223;23;20163;-69
2020/12/04 01:41:02;;;;;;;22.08;13.48;;;-1.80;71.00;;;;;;6152076;22;20164;-69
2020/12/04 01:46:55;;;;;;;24.60;14.70;;;-1.80;71.20;;;;;;6151937;23;20155;-69
2020/12/04 01:49:23;;;;;;;27.00;14.90;;;-1.80;71.80;;;;;;6151739;23;20187;-69
2020/12/04 01:51:53;;;;;;;22.00;13.48;;;-1.80;71.90;;;;;;6152232;23;20167;-70
2020/12/04 01:54:20;;;;;;;18.98;12.32;;;-1.80;72.20;;;;;;6151712;23;20217;-69
2020/12/04 01:56:48;;;;;;;21.00;12.57;;;-1.80;72.00;;;;;;6151700;23;20164;-69
2020/12/04 01:59:15;;;;;;;24.45;13.60;;;-1.80;72.20;;;;;;6152077;23;20197;-69
2020/12/04 02:01:58;;;;;;;20.42;12.85;;;-1.70;72.50;;;;;;6152363;23;20159;-69
2020/12/04 02:04:26;;;;;;;20.77;12.55;;;-1.80;71.30;;;;;;6151728;23;20213;-69
2020/12/04 02:10:22;;;;;;;18.38;12.00;;;-1.80;71.70;;;;;;6151861;23;20237;-69
2020/12/04 02:13:08;;;;;;;25.00;13.75;;;-1.80;70.80;;;;;;6152254;23;20152;-69
2020/12/04 02:15:35;;;;;;;19.90;13.18;;;-1.80;70.80;;;;;;6152012;23;20591;-69
2020/12/04 02:18:15;;;;;;;19.73;13.68;;;-1.90;71.10;;;;;;6151796;23;20237;-69
2020/12/04 02:20:42;;;;;;;21.92;13.52;;;-1.90;71.60;;;;;;6151811;23;20152;-69
2020/12/04 02:23:15;;;;;;;24.58;13.15;;;-1.80;72.00;;;;;;6152682;23;20159;-69
2020/12/04 02:25:41;;;;;;;20.10;13.07;;;-1.80;71.60;;;;;;6152116;22;20184;-69
2020/12/04 02:28:08;;;;;;;21.83;12.50;;;-1.80;71.10;;;;;;6152086;23;20184;-69
2020/12/04 02:33:57;;;;;;;19.65;14.30;;;-1.90;70.50;;;;;;6151329;23;20586;-69
2020/12/04 02:36:25;;;;;;;21.23;12.63;;;-1.90;70.00;;;;;;6152535;23;20510;-69
2020/12/04 02:38:52;;;;;;;20.90;14.30;;;-2.00;70.00;;;;;;6151352;23;20459;-69
2020/12/04 02:41:26;;;;;;;22.30;13.65;;;-2.00;70.00;;;;;;6152186;23;20202;-69
2020/12/04 02:44:01;;;;;;;20.80;13.70;;;-2.00;70.70;;;;;;6151562;23;20235;-69
2020/12/04 02:46:27;;;;;;;18.10;11.50;;;-2.00;70.90;;;;;;6151916;23;20159;-69
2020/12/04 02:48:57;;;;;;;25.35;14.45;;;-2.00;70.50;;;;;;6150967;23;20279;-69
2020/12/04 02:51:25;;;;;;;24.33;14.77;;;-2.00;70.70;;;;;;6152343;23;20168;-69
2020/12/04 02:53:52;;;;;;;23.63;13.77;;;-2.00;70.80;;;;;;6151684;23;20217;-69
2020/12/04 02:56:21;;;;;;;21.77;12.48;;;-2.00;70.90;;;;;;6151820;23;20152;-69
2020/12/04 02:58:47;;;;;;;23.95;14.35;;;-1.90;71.10;;;;;;6151845;23;20599;-69
2020/12/04 03:04:36;;;;;;;20.13;11.18;;;-2.00;70.10;;;;;;6151546;23;20644;-69
2020/12/04 03:10:25;;;;;;;18.83;11.60;;;-2.00;68.80;;;;;;6151260;23;20298;-69
2020/12/04 03:12:51;;;;;;;22.15;12.57;;;-2.10;69.20;;;;;;6151016;23;20629;-69
2020/12/04 03:15:18;;;;;;;22.63;12.23;;;-2.10;69.40;;;;;;6151733;23;20152;-69
2020/12/04 03:21:07;;;;;;;26.65;13.05;;;-2.00;70.30;;;;;;6151865;23;20175;-69
2020/12/04 03:26:56;;;;;;;17.80;10.95;;;-2.00;70.40;;;;;;6151257;23;20722;-70
2020/12/04 03:29:26;;;;;;;18.55;11.60;;;-2.00;70.30;;;;;;6152492;22;20179;-69
2020/12/04 03:31:53;;;;;;;25.92;14.60;;;-2.00;70.20;;;;;;6151223;23;20538;-70
2020/12/04 03:34:19;;;;;;;20.15;14.30;;;-2.00;70.70;;;;;;6151687;23;20148;-70
2020/12/04 03:36:46;;;;;;;20.92;13.07;;;-2.00;71.00;;;;;;6151626;22;20148;-69
2020/12/04 03:42:35;;;;;;;25.45;14.70;;;-1.90;70.90;;;;;;6151361;23;20229;-69
2020/12/04 03:45:02;;;;;;;22.15;12.18;;;-1.90;71.00;;;;;;6151264;23;20242;-69
2020/12/04 03:47:29;;;;;;;21.38;12.88;;;-1.90;71.50;;;;;;6151156;23;20164;-70
2020/12/04 03:49:56;;;;;;;25.30;11.98;;;-1.80;71.60;;;;;;6151046;23;20201;-69
2020/12/04 03:52:24;;;;;;;19.70;11.98;;;-1.80;71.20;;;;;;6151476;22;20167;-69
2020/12/04 03:54:54;;;;;;;20.80;13.20;;;-1.80;71.40;;;;;;6152105;23;20156;-69
2020/12/04 03:57:21;;;;;;;22.25;13.48;;;-1.70;71.70;;;;;;6151477;23;20159;-69
2020/12/04 03:59:48;;;;;;;22.08;13.45;;;-1.70;71.40;;;;;;6151899;23;20160;-69
2020/12/04 04:02:15;;;;;;;23.77;14.32;;;-1.70;71.90;;;;;;6151693;22;20239;-69
2020/12/04 04:04:42;;;;;;;20.67;13.20;;;-1.60;71.90;;;;;;6151839;23;20159;-69
2020/12/04 04:07:08;;;;;;;31.00;19.25;;;-1.60;71.30;;;;;;6151340;23;20552;-69
2020/12/04 04:09:35;;;;;;;23.80;13.85;;;-1.60;71.40;;;;;;6151443;23;20650;-69
2020/12/04 04:12:02;;;;;;;22.13;12.80;;;-1.60;71.90;;;;;;6151249;23;20210;-69
2020/12/04 04:14:28;;;;;;;20.48;13.13;;;-1.60;71.80;;;;;;6151487;23;20225;-69
2020/12/04 04:17:28;;;;;;;18.75;13.30;;;-1.60;72.00;;;;;;6152158;23;20149;-69
2020/12/04 04:23:18;;;;;;;26.05;15.25;;;-1.40;72.40;;;;;;6150958;23;20151;-68
2020/12/04 04:29:06;;;;;;;22.45;12.95;;;-1.30;72.10;;;;;;6150947;23;20191;-69
2020/12/04 04:32:26;;;;;;;21.88;14.80;;;-1.30;72.10;;;;;;6151540;23;20160;-70
2020/12/04 04:34:53;;;;;;;26.13;15.55;;;-1.20;72.30;;;;;;6151393;23;20159;-69
2020/12/04 04:37:20;;;;;;;28.75;15.73;;;-1.20;72.20;;;;;;6151827;22;20149;-69
2020/12/04 04:39:58;;;;;;;24.77;14.55;;;-1.20;71.80;;;;;;6151458;22;20154;-69
2020/12/04 04:42:25;;;;;;;22.15;14.23;;;-1.20;72.30;;;;;;6151612;23;20152;-69
2020/12/04 04:44:53;;;;;;;22.23;14.52;;;-1.20;72.20;;;;;;6151194;23;20239;-69
2020/12/04 04:47:21;;;;;;;26.95;14.90;;;-1.10;72.60;;;;;;6151389;23;20506;-69
2020/12/04 04:49:50;;;;;;;19.25;12.82;;;-1.10;72.40;;;;;;6151210;23;20253;-69
2020/12/04 04:52:52;;;;;;;23.70;14.43;;;-1.10;72.40;;;;;;6151764;23;20164;-69
2020/12/04 04:55:20;;;;;;;21.92;15.02;;;-1.00;72.10;;;;;;6151248;23;20595;-69
2020/12/04 04:57:46;;;;;;;22.35;14.38;;;-1.00;72.20;;;;;;6151294;23;20466;-71
2020/12/04 05:00:13;;;;;;;22.02;14.80;;;-1.00;72.00;;;;;;6151038;23;20607;-70
2020/12/04 05:02:54;;;;;;;22.13;13.75;;;-1.00;72.40;;;;;;6152106;23;20603;-69
2020/12/04 05:05:26;;;;;;;20.20;12.10;;;-1.00;72.60;;;;;;6153002;23;20152;-69
2020/12/04 05:07:54;;;;;;;25.02;15.63;;;-1.00;72.70;;;;;;6150965;23;20160;-69
2020/12/04 05:10:22;;;;;;;19.85;11.98;;;-0.90;72.30;;;;;;6152489;23;20633;-69
2020/12/04 05:13:01;;;;;;;20.35;13.05;;;-0.90;72.70;;;;;;6152605;23;20152;-69
2020/12/04 05:15:31;;;;;;;20.63;14.15;;;-0.90;72.80;;;;;;6152359;23;20156;-70
2020/12/04 05:18:05;;;;;;;20.67;11.90;;;-0.90;72.60;;;;;;6151578;23;20179;-69
2020/12/04 05:20:33;;;;;;;20.42;12.00;;;-0.80;73.20;;;;;;6123193;23;20247;-70
2020/12/04 05:23:10;;;;;;;26.52;13.13;;;-0.80;72.70;;;;;;6123127;23;20153;-69
2020/12/04 05:25:42;;;;;;;20.83;12.60;;;-0.80;72.40;;;;;;6123172;23;20164;-69
2020/12/04 05:28:13;;;;;;;22.88;13.57;;;-0.80;72.40;;;;;;6122415;23;20208;-70
2020/12/04 05:30:42;;;;;;;29.00;15.00;;;-0.90;72.30;;;;;;6122441;23;20161;-69
2020/12/04 05:33:09;;;;;;;24.27;14.27;;;-0.90;72.20;;;;;;6122934;23;20165;-69
2020/12/04 05:35:36;;;;;;;21.90;14.40;;;-0.90;72.30;;;;;;6122527;23;20203;-68
2020/12/04 05:38:07;;;;;;;19.65;13.55;;;-1.00;72.20;;;;;;6122481;23;20172;-69
2020/12/04 05:40:35;;;;;;;25.63;14.90;;;-1.00;72.60;;;;;;6122459;23;20172;-70
2020/12/04 05:43:16;;;;;;;23.17;13.02;;;-1.00;72.50;;;;;;6123130;23;20248;-69
2020/12/04 05:45:42;;;;;;;24.13;13.98;;;-1.10;72.50;;;;;;6096362;23;20620;-69
2020/12/04 05:48:16;;;;;;;21.38;13.10;;;-1.10;72.50;;;;;;6123133;23;20195;-69
2020/12/04 05:50:43;;;;;;;24.10;13.40;;;-1.10;72.40;;;;;;6122638;23;20839;-69
2020/12/04 05:53:12;;;;;;;24.33;13.88;;;-1.10;72.10;;;;;;6122835;23;20200;-69
2020/12/04 05:55:38;;;;;;;23.85;14.70;;;-1.10;72.20;;;;;;6122306;23;20474;-70
2020/12/04 05:58:12;;;;;;;20.92;12.05;;;-1.10;72.30;;;;;;6122468;23;20167;-69
2020/12/04 06:00:39;;;;;;;23.65;13.07;;;-1.10;72.00;;;;;;6117815;23;20669;-69
2020/12/04 06:03:06;;;;;;;24.17;13.55;;;-1.10;72.20;;;;;;6122234;23;20168;-69
2020/12/04 06:09:01;;;;;;;19.67;12.50;;;-1.10;72.10;;;;;;6122449;23;20253;-69
2020/12/04 06:11:37;;;;;;;27.65;13.25;;;-1.30;72.20;;;;;;6118552;23;20607;-69
2020/12/04 06:21:04;;;;;;;24.88;15.60;;;-1.30;73.70;;;;;;6148697;23;20656;-69
2020/12/04 06:23:32;;;;;;;28.50;15.07;;;-1.30;74.20;;;;;;6151329;23;20168;-70
2020/12/04 06:30:21;;;;;;;38.05;20.30;;;-1.20;74.70;;;;;;6151815;23;20191;-69
2020/12/04 06:32:50;;;;;;;30.90;19.05;;;-1.10;74.50;;;;;;6151674;23;20148;-69
2020/12/04 06:42:01;;;;;;;20.58;13.65;;;-0.90;75.00;;;;;;6150938;23;20294;-70
2020/12/04 06:44:37;;;;;;;26.60;14.55;;;-0.90;75.10;;;;;;6151139;23;20160;-70
2020/12/04 06:47:27;;;;;;;28.83;15.55;;;-0.80;75.10;;;;;;6151853;23;20166;-69
2020/12/04 06:49:54;;;;;;;25.85;15.95;;;-0.80;75.00;;;;;;6129159;23;20180;-70
2020/12/04 06:52:23;;;;;;;19.70;13.43;;;-0.70;75.20;;;;;;6151480;23;20171;-68
2020/12/04 06:54:59;;;;;;;18.60;12.55;;;-0.70;75.60;;;;;;6151031;23;20164;-69
2020/12/04 06:57:27;;;;;;;21.05;13.38;;;-0.60;74.80;;;;;;6134284;23;20163;-70
2020/12/04 07:00:37;;;;;;;23.70;14.55;;;-0.70;74.70;;;;;;6150974;23;20152;-70
2020/12/04 07:03:05;;;;;;;23.10;14.90;;;-0.60;75.20;;;;;;6152080;23;20200;-69
2020/12/04 07:05:33;;;;;;;26.77;17.23;;;-0.50;75.00;;;;;;6151713;23;20182;-69
2020/12/04 07:08:14;;;;;;;28.85;17.48;;;-0.50;75.10;;;;;;6150545;23;20201;-69
2020/12/04 07:10:41;;;;;;;27.90;17.35;;;-0.40;75.00;;;;;;6150480;23;20475;-69
2020/12/04 07:13:08;;;;;;;22.55;13.23;;;-0.40;74.90;;;;;;6150726;22;20164;-69
2020/12/04 07:15:35;;;;;;;24.88;13.52;;;-0.30;75.00;;;;;;6150678;23;20164;-70
2020/12/04 07:18:01;;;;;;;17.40;11.18;;;-0.30;75.00;;;;;;6150196;22;20168;-70
2020/12/04 07:20:34;;;;;;;21.92;13.50;;;-0.30;74.80;;;;;;6150751;22;20543;-70
2020/12/04 07:23:05;;;;;;;15.43;10.30;;;-0.20;75.00;;;;;;6149871;23;20518;-71
2020/12/04 07:25:31;;;;;;;20.80;12.40;;;-0.20;75.00;;;;;;6150261;23;20633;-70
2020/12/04 07:28:00;;;;;;;19.20;12.57;;;-0.20;74.70;;;;;;6151052;22;20263;-69
2020/12/04 07:30:29;;;;;;;18.27;11.82;;;-0.10;75.20;;;;;;6151316;23;20192;-69
2020/12/04 07:37:02;;;;;;;22.83;14.75;;;-0.10;74.80;;;;;;6150959;23;20135;-69
2020/12/04 07:39:30;;;;;;;24.70;16.10;;;0.00;75.00;;;;;;6151055;23;20152;-70
2020/12/04 07:41:59;;;;;;;42.35;23.88;;;-0.10;74.70;;;;;;6151196;23;20221;-70
2020/12/04 07:44:32;;;;;;;34.97;21.90;;;0.00;75.00;;;;;;6150646;23;20163;-70
2020/12/04 07:47:03;;;;;;;41.38;19.67;;;0.00;75.60;;;;;;6151807;23;20571;-69
2020/12/04 07:49:30;;;;;;;37.60;22.85;;;0.00;75.70;;;;;;6151800;23;20183;-70
2020/12/04 07:52:09;;;;;;;37.17;23.60;;;0.10;75.80;;;;;;6151491;23;20161;-70
2020/12/04 07:54:35;;;;;;;25.98;15.77;;;0.20;76.20;;;;;;6151695;23;20194;-71
2020/12/04 07:57:03;;;;;;;24.83;14.88;;;0.20;76.20;;;;;;6151603;23;20535;-70
2020/12/04 07:59:31;;;;;;;21.13;12.77;;;0.30;76.50;;;;;;6151097;23;20164;-71
2020/12/04 08:01:59;;;;;;;19.98;12.55;;;0.40;76.40;;;;;;6151668;23;20164;-70
2020/12/04 08:04:25;;;;;;;19.35;11.80;;;0.50;76.40;;;;;;6151513;23;20171;-70
2020/12/04 08:06:51;;;;;;;16.00;10.63;;;0.70;76.40;;;;;;6151829;22;20167;-70
2020/12/04 08:09:19;;;;;;;17.95;10.32;;;0.70;76.00;;;;;;6151327;22;20560;-69
2020/12/04 08:11:52;;;;;;;14.63;9.10;;;0.80;76.00;;;;;;6151124;23;20203;-69
2020/12/04 08:14:25;;;;;;;14.65;10.93;;;0.80;75.90;;;;;;6151606;23;20159;-70
2020/12/04 08:16:57;;;;;;;19.20;11.93;;;0.90;76.30;;;;;;6151291;23;20164;-70
2020/12/04 08:19:25;;;;;;;20.13;11.90;;;0.90;76.20;;;;;;6150856;23;20207;-70
2020/12/04 08:22:06;;;;;;;24.75;14.80;;;1.00;76.40;;;;;;6151218;23;20253;-70
2020/12/04 08:24:35;;;;;;;19.17;11.35;;;1.10;76.70;;;;;;6151411;23;20152;-70
2020/12/04 08:27:07;;;;;;;15.13;9.75;;;1.10;76.40;;;;;;6151465;23;20225;-70
2020/12/04 08:29:35;;;;;;;18.27;9.90;;;1.20;76.50;;;;;;6151475;23;20184;-70
2020/12/04 08:32:21;;;;;;;14.27;8.77;;;1.30;76.50;;;;;;6151497;23;20164;-71
2020/12/04 08:34:49;;;;;;;16.25;9.88;;;1.30;76.50;;;;;;6151554;23;20152;-70
2020/12/04 08:37:17;;;;;;;19.15;11.50;;;1.40;76.50;;;;;;6150233;23;20205;-70
2020/12/04 08:39:49;;;;;;;17.48;11.48;;;1.40;76.70;;;;;;6151099;23;20164;-69
2020/12/04 08:42:19;;;;;;;18.70;11.13;;;1.40;76.60;;;;;;6151317;23;20168;-70
2020/12/04 08:45:05;;;;;;;20.30;11.35;;;1.50;77.40;;;;;;6151153;23;20186;-69
2020/12/04 08:47:38;;;;;;;16.13;10.73;;;1.40;77.40;;;;;;6151477;23;20497;-70
2020/12/04 08:50:12;;;;;;;19.92;12.63;;;1.50;78.40;;;;;;6151303;23;20259;-70
2020/12/04 08:52:41;;;;;;;17.08;11.95;;;1.50;77.40;;;;;;6151092;23;20610;-70
2020/12/04 08:55:09;;;;;;;20.02;12.38;;;1.60;77.30;;;;;;6151014;23;20243;-69
2020/12/04 08:57:36;;;;;;;15.52;11.23;;;1.60;77.40;;;;;;6151269;23;20178;-70
2020/12/04 09:00:08;;;;;;;12.98;10.18;;;1.70;77.40;;;;;;6151272;23;20160;-70
2020/12/04 09:02:37;;;;;;;17.00;10.20;;;1.80;77.60;;;;;;6151328;23;20161;-70
2020/12/04 09:05:04;;;;;;;10.77;8.65;;;1.90;77.70;;;;;;6151170;23;20166;-70
2020/12/04 09:07:31;;;;;;;13.20;8.85;;;1.90;77.70;;;;;;6150868;23;20615;-70
2020/12/04 09:09:57;;;;;;;15.73;9.68;;;2.00;77.80;;;;;;6151210;23;20190;-70
2020/12/04 09:12:24;;;;;;;12.57;9.30;;;2.10;77.90;;;;;;6151261;23;20164;-71
2020/12/04 09:14:50;;;;;;;13.50;9.48;;;2.10;77.90;;;;;;6151319;23;20503;-70
2020/12/04 09:17:17;;;;;;;15.50;9.25;;;2.20;78.20;;;;;;6150742;23;20164;-70
2020/12/04 09:19:45;;;;;;;13.30;10.10;;;2.30;78.40;;;;;;6150779;23;20214;-70
2020/12/04 09:22:13;;;;;;;13.68;9.57;;;2.40;78.50;;;;;;6150607;22;20661;-69
2020/12/04 09:24:39;;;;;;;18.60;11.23;;;2.50;78.20;;;;;;6150817;23;20160;-70
2020/12/04 09:27:06;;;;;;;18.85;11.82;;;2.50;78.90;;;;;;6151213;22;20164;-70
2020/12/04 09:29:33;;;;;;;15.55;10.90;;;2.60;78.00;;;;;;6150937;23;20187;-70
2020/12/04 09:32:06;;;;;;;15.90;11.32;;;2.60;77.90;;;;;;6150861;22;20217;-70
2020/12/04 09:34:33;;;;;;;5.30;3.28;;;2.70;78.60;;;;;;6151085;23;20156;-70
2020/12/04 09:37:12;;;;;;;5.97;2.70;;;2.80;75.00;;;;;;6151021;23;20218;-70
2020/12/04 09:39:39;;;;;;;2.50;1.20;;;3.00;68.90;;;;;;6151082;23;20152;-70
2020/12/04 09:42:07;;;;;;;2.50;1.63;;;3.40;65.60;;;;;;6150848;23;20618;-70
2020/12/04 09:44:33;;;;;;;4.25;1.70;;;3.60;65.80;;;;;;6151150;22;20239;-70
2020/12/04 09:47:00;;;;;;;4.50;1.27;;;3.80;62.80;;;;;;6150752;23;20164;-70
2020/12/04 09:49:27;;;;;;;2.13;1.00;;;4.00;61.90;;;;;;6152279;23;20183;-69
2020/12/04 09:51:55;;;;;;;2.28;1.00;;;4.30;60.00;;;;;;6152279;23;20213;-71
2020/12/04 09:54:23;;;;;;;1.60;0.80;;;4.50;59.30;;;;;;6152505;22;20163;-70
2020/12/04 09:56:53;;;;;;;1.85;1.02;;;4.70;58.40;;;;;;6152293;23;20290;-69
2020/12/04 09:59:20;;;;;;;3.47;1.50;;;4.90;57.70;;;;;;6152638;23;20469;-69
2020/12/04 10:01:48;;;;;;;1.95;0.95;;;5.00;58.10;;;;;;6151774;23;20273;-70
2020/12/04 10:04:14;;;;;;;2.15;1.25;;;5.10;57.90;;;;;;6151878;23;20199;-70
2020/12/04 10:06:41;;;;;;;11.57;6.30;;;5.10;58.80;;;;;;6151888;23;20610;-69
2020/12/04 10:09:07;;;;;;;10.05;5.90;;;5.20;61.00;;;;;;6152010;23;20183;-70
2020/12/04 10:11:35;;;;;;;4.57;2.70;;;5.20;63.80;;;;;;6151752;23;20195;-70
2020/12/04 10:14:01;;;;;;;1.88;1.60;;;5.20;60.80;;;;;;6151858;23;20721;-70
2020/12/04 10:16:28;;;;;;;1.75;1.00;;;5.30;56.60;;;;;;6151767;23;20606;-71
2020/12/04 10:18:54;;;;;;;2.58;1.10;;;5.50;55.00;;;;;;6151779;23;20164;-70
2020/12/04 10:21:20;;;;;;;4.82;1.70;;;5.70;54.70;;;;;;6152286;23;20163;-70
2020/12/04 10:23:47;;;;;;;3.25;2.03;;;5.80;53.80;;;;;;6152284;23;20188;-69
2020/12/04 10:26:13;;;;;;;7.40;5.68;;;6.00;54.60;;;;;;6152036;23;20168;-70
2020/12/04 10:28:41;;;;;;;10.27;6.85;;;6.10;59.20;;;;;;6151952;23;20164;-70
2020/12/04 10:31:07;;;;;;;7.60;4.97;;;6.20;61.50;;;;;;6152072;23;20163;-70
2020/12/04 10:33:34;;;;;;;10.85;6.25;;;6.20;62.40;;;;;;6151742;23;20164;-70
2020/12/04 10:36:02;;;;;;;7.90;5.07;;;6.30;62.80;;;;;;6152111;23;20159;-71
2020/12/04 10:38:28;;;;;;;11.55;4.70;;;6.80;65.80;;;;;;6151836;23;20661;-70
2020/12/04 10:40:55;;;;;;;3.90;2.25;;;8.20;64.90;;;;;;6152072;23;20171;-70
2020/12/04 10:43:21;;;;;;;3.75;2.03;;;9.90;58.20;;;;;;6152257;23;20164;-71
2020/12/04 10:45:49;;;;;;;3.17;1.10;;;11.30;53.20;;;;;;6152112;23;20175;-71
2020/12/04 10:48:15;;;;;;;2.35;1.38;;;12.70;50.60;;;;;;6149114;23;20191;-68
2020/12/04 10:50:43;;;;;;;2.65;1.20;;;13.90;49.00;;;;;;6151550;23;20223;-68
2020/12/04 10:53:10;;;;;;;3.65;1.20;;;15.00;43.10;;;;;;6151600;23;20616;-68
2020/12/04 10:55:36;;;;;;;7.22;4.25;;;16.20;39.00;;;;;;6151855;23;20168;-69
2020/12/04 10:58:03;;;;;;;10.63;6.13;;;17.50;43.80;;;;;;6151507;23;20175;-69
2020/12/04 11:00:29;;;;;;;10.53;5.83;;;18.50;43.80;;;;;;6151418;23;20396;-69
2020/12/04 11:03:02;;;;;;;9.20;5.90;;;19.40;42.70;;;;;;6151674;23;20928;-69
2020/12/04 11:08:12;;;;;;;13.37;7.17;;;20.90;39.10;;;;;;6150383;23;20383;-69
2020/12/04 11:10:40;;;;;;;4.93;3.93;;;21.60;38.50;;;;;;6151735;23;20788;-70
2020/12/04 11:13:07;;;;;;;5.90;1.63;;;22.20;32.80;;;;;;6152035;22;20407;-70
2020/12/04 11:15:33;;;;;;;4.83;2.40;;;22.50;27.20;;;;;;6151893;23;20441;-70
2020/12/04 11:18:01;;;;;;;3.47;2.17;;;22.80;28.50;;;;;;6151963;23;20392;-69
2020/12/04 11:20:27;;;;;;;2.00;1.20;;;23.00;28.00;;;;;;6151790;23;20392;-71
2020/12/04 11:22:54;;;;;;;1.97;1.00;;;23.30;24.90;;;;;;6151592;23;20475;-70
2020/12/04 11:25:21;;;;;;;2.97;1.50;;;23.60;24.70;;;;;;6151528;23;20878;-70
2020/12/04 11:27:49;;;;;;;7.30;1.63;;;23.90;25.40;;;;;;6151778;23;20457;-69
2020/12/04 11:30:17;;;;;;;3.07;1.60;;;24.20;26.10;;;;;;6151753;23;20447;-69
2020/12/04 11:32:44;;;;;;;3.07;0.90;;;24.60;23.60;;;;;;6151698;23;20717;-70
2020/12/04 11:35:13;;;;;;;4.00;1.03;;;24.50;23.50;;;;;;6151420;23;20442;-70
2020/12/04 11:37:43;;;;;;;1.90;0.90;;;24.70;23.00;;;;;;6151504;23;20406;-69
2020/12/04 11:40:11;;;;;;;1.97;1.17;;;24.50;21.40;;;;;;6151770;23;20441;-69
2020/12/04 11:42:39;;;;;;;5.43;1.30;;;24.60;22.40;;;;;;6151458;22;20490;-69
2020/12/04 11:45:06;;;;;;;7.10;1.33;;;24.40;21.10;;;;;;6151836;23;20396;-69
2020/12/04 11:47:33;;;;;;;19.97;4.57;;;23.70;22.80;;;;;;6151644;22;20425;-69
2020/12/04 11:49:59;;;;;;;8.73;2.37;;;23.30;24.00;;;;;;6151293;23;20431;-70
2020/12/04 11:52:27;;;;;;;3.70;1.40;;;23.00;25.00;;;;;;6151392;23;20426;-69
2020/12/04 11:54:53;;;;;;;7.90;1.80;;;22.30;23.40;;;;;;6151708;23;20753;-70
2020/12/04 11:57:20;;;;;;;4.33;1.70;;;21.50;25.00;;;;;;6151690;23;20396;-69
2020/12/04 11:59:46;;;;;;;9.23;2.13;;;20.80;25.80;;;;;;6151591;23;20449;-69
2020/12/04 12:02:12;;;;;;;3.80;1.53;;;20.50;27.30;;;;;;6151315;23;20392;-69
2020/12/04 12:04:39;;;;;;;7.27;1.53;;;20.50;27.90;;;;;;6151546;23;20449;-69
2020/12/04 12:07:05;;;;;;;3.97;1.37;;;20.30;26.50;;;;;;6151798;23;20757;-70
2020/12/04 12:09:33;;;;;;;8.93;1.13;;;20.60;28.50;;;;;;6151865;23;20439;-69
2020/12/04 12:11:59;;;;;;;3.87;1.00;;;20.90;27.00;;;;;;6151433;23;20468;-70
2020/12/04 12:14:26;;;;;;;3.70;1.10;;;20.90;28.10;;;;;;6150978;23;20738;-70
2020/12/04 12:16:52;;;;;;;6.00;1.70;;;21.10;27.40;;;;;;6151612;23;20384;-69
2020/12/04 12:19:18;;;;;;;16.33;3.17;;;21.50;28.40;;;;;;6151122;23;20400;-70
2020/12/04 12:21:48;;;;;;;6.67;3.13;;;21.90;27.80;;;;;;6150884;23;20941;-69
2020/12/04 12:24:15;;;;;;;11.50;4.03;;;22.20;28.00;;;;;;6151851;23;20388;-69
2020/12/04 12:26:43;;;;;;;9.83;3.30;;;22.50;26.10;;;;;;6149005;23;20749;-69
2020/12/04 12:29:09;;;;;;;4.40;2.60;;;22.40;27.10;;;;;;6150727;23;20738;-69
2020/12/04 12:31:35;;;;;;;4.07;2.57;;;22.40;26.00;;;;;;6151126;23;20453;-70
2020/12/04 12:34:02;;;;;;;4.50;2.10;;;22.30;26.80;;;;;;6151140;23;20695;-69
2020/12/04 12:36:28;;;;;;;7.47;1.87;;;22.10;26.20;;;;;;6150443;23;20392;-70
2020/12/04 12:38:56;;;;;;;4.40;2.30;;;21.90;25.70;;;;;;6151545;23;20694;-69
2020/12/04 12:41:23;;;;;;;7.27;2.23;;;21.50;25.60;;;;;;6151339;22;20396;-69
2020/12/04 12:43:50;;;;;;;4.97;1.60;;;21.30;24.90;;;;;;6150982;23;20740;-69
2020/12/04 12:46:17;;;;;;;5.20;1.70;;;20.60;24.40;;;;;;6151130;22;20395;-69
2020/12/04 12:48:43;;;;;;;4.60;2.10;;;20.10;24.60;;;;;;6150681;23;20395;-69
2020/12/04 12:51:10;;;;;;;3.20;1.87;;;19.90;25.60;;;;;;6151097;23;20391;-69
2020/12/04 12:53:36;;;;;;;2.77;1.50;;;19.70;25.00;;;;;;6150637;23;20762;-69
2020/12/04 12:56:03;;;;;;;3.27;1.60;;;19.80;25.20;;;;;;6150099;23;20866;-69
2020/12/04 12:58:29;;;;;;;2.43;1.13;;;19.60;25.20;;;;;;6150869;23;20457;-68
2020/12/04 13:00:57;;;;;;;2.97;1.20;;;19.30;23.90;;;;;;6150930;23;20399;-69
2020/12/04 13:03:25;;;;;;;1.80;0.70;;;19.00;24.90;;;;;;6151398;23;20468;-69
2020/12/04 13:05:52;;;;;;;2.13;0.90;;;18.60;24.50;;;;;;6151593;23;20414;-68
2020/12/04 13:08:18;;;;;;;3.83;0.70;;;18.20;22.40;;;;;;6151095;23;20475;-68
2020/12/04 13:10:56;;;;;;;4.30;0.93;;;17.80;22.30;;;;;;6151027;23;20443;-69
2020/12/04 13:13:22;;;;;;;1.93;0.50;;;17.40;22.60;;;;;;6151453;23;20376;-68
2020/12/04 13:15:50;;;;;;;2.60;0.60;;;16.80;22.20;;;;;;6151355;23;20395;-68
2020/12/04 13:18:17;;;;;;;1.40;0.60;;;16.40;22.80;;;;;;6150350;23;20407;-68
2020/12/04 13:20:44;;;;;;;2.13;1.03;;;16.00;24.00;;;;;;6151044;23;20714;-68
2020/12/04 13:23:17;;;;;;;2.57;1.30;;;15.60;26.20;;;;;;6151271;23;20494;-68
2020/12/04 13:25:45;;;;;;;1.77;0.70;;;15.30;27.90;;;;;;6152369;23;20467;-68
2020/12/04 13:28:12;;;;;;;1.70;0.70;;;14.90;28.00;;;;;;6151974;23;20862;-68
2020/12/04 13:30:38;;;;;;;3.17;1.00;;;14.60;27.80;;;;;;6151783;23;20925;-69
2020/12/04 13:33:06;;;;;;;6.60;1.80;;;14.30;27.40;;;;;;6151874;23;20399;-68
2020/12/04 13:35:34;;;;;;;2.73;1.20;;;14.00;28.70;;;;;;6152092;23;20433;-68
2020/12/04 13:38:00;;;;;;;2.67;1.00;;;13.80;29.70;;;;;;6151934;23;20396;-69
2020/12/04 13:40:27;;;;;;;4.63;1.10;;;13.50;30.20;;;;;;6151888;23;20392;-69
2020/12/04 13:42:53;;;;;;;6.83;3.23;;;13.20;31.10;;;;;;6152299;23;20399;-69
2020/12/04 13:45:20;;;;;;;9.47;6.40;;;13.00;32.00;;;;;;6152213;23;20396;-68
2020/12/04 13:47:46;;;;;;;18.60;11.17;;;12.90;32.70;;;;;;6151885;23;20473;-68
2020/12/04 13:50:13;;;;;;;10.87;6.70;;;12.80;33.50;;;;;;6151694;23;20929;-68
2020/12/04 13:52:41;;;;;;;8.63;4.00;;;12.60;33.20;;;;;;6151847;23;20418;-68
2020/12/04 13:55:08;;;;;;;4.10;2.00;;;12.30;33.00;;;;;;6151742;23;20167;-68
2020/12/04 13:57:34;;;;;;;3.80;2.38;;;12.00;33.40;;;;;;6152066;22;20395;-69
2020/12/04 14:00:00;;;;;;;18.20;10.50;;;11.90;33.80;;;;;;6152142;23;20171;-69
2020/12/04 14:02:30;;;;;;;14.80;8.07;;;11.60;34.40;;;;;;6151888;22;20221;-69
2020/12/04 14:04:57;;;;;;;4.38;2.30;;;11.50;34.70;;;;;;6152079;23;20210;-69
2020/12/04 14:07:26;;;;;;;2.90;1.60;;;11.40;34.10;;;;;;6152348;23;20172;-69
2020/12/04 14:09:54;;;;;;;2.80;1.70;;;11.40;33.70;;;;;;6151687;23;20194;-69
2020/12/04 14:12:20;;;;;;;2.08;0.93;;;11.20;33.30;;;;;;6152127;23;20168;-70